Ogallala, NE

9:25 PM MDT on June 27, 2017 (GMT -0600)
MUP225 | | Change Station
Active Advisory: Severe Thunderstorm Watch

Elev 3204 ft 41.13 °N, 101.66 °W | Updated 72 days ago

Rain
Rain
60.0 °F
Feels Like 60.0 °F
N
6.0
Wind Variable Wind from SE
Gusts 10.0 mph

Today
High -- | Low -- °F
--% Chance of Precip.
Yesterday
High -- | Low -- °F
Precip. -- in
Pressure 29.70 in
Visibility 10.0 miles
Clouds Scattered Clouds 4800 ft
Scattered Clouds 6000 ft
Scattered Clouds 7500 ft
Dew Point Not available.
Humidity Not available.
Rainfall 0.27 in
Snow Depth Not available.
5:16 AM 8:23 PM
Waxing Crescent, 21% visible
METAR KOGA 280315Z AUTO 32007G16KT 10SM -RA SCT048 SCT060 SCT075 23/12 A2970 RMK AO2 LTG DSNT NE AND NW T02330119
Pressure 29.70 in
Visibility 10.0 miles
Clouds Scattered Clouds 4800 ft
Scattered Clouds 6000 ft
Scattered Clouds 7500 ft
Dew Point Not available.
Humidity Not available.
Rainfall 0.27 in
Snow Depth Not available.
5:16 AM 8:23 PM
Waxing Crescent, 21% visible
METAR KOGA 280315Z AUTO 32007G16KT 10SM -RA SCT048 SCT060 SCT075 23/12 A2970 RMK AO2 LTG DSNT NE AND NW T02330119

Get Your Daily Forecast Email!

Thanks for signing up!

Be on the lookout for a verification email in your inbox.

You'll start receiving severe weather alerts in your inbox..

×

10-Day Weather Forecast

Almanac

Astronomy

Jun. 27, 2017 Rise Set
Actual Time
Civil Twilight
Nautical Twilight
Astronomical Twilight
Moon
Length of Visible Light
Length of Day
Tomorrow will be .
, % of the Moon is Illuminated

Today's Extremes

State Highs State Lows

Community

WunderPhotos

Category 6

Welcome to Category 6. This is the collective home for Weather Underground's featured writeups by Dr. Jeff Masters (right), Bob Henson (left), Chris Burt, and other regular contributors.

Nearby

Air Quality

  Air Quality AQ Index Pollutant
Not available.

Snow Depth

Station Depth Elevation

Earthquake Activity

City Distance Mag. Time & Date
Minimum magnitude displayed is 2.5.

Coastal Water Temperatures

Place Temperature

Stations

Nearby Weather Stations

Station Location Temp. Windchill Dew Point Humidity Wind Precip. Elev Updated Type
                   

Watches & Warnings

Severe Thunderstorm Watch
Issued: 10:03 PM CDT Jun. 27, 2017 – National Weather Service

Severe Thunderstorm Watch 372 remains in effect until 1100 PM CDT
for the following locations


NE
. Nebraska counties included are

Arthur Blaine Brown
Chase Cherry Custer
Deuel Frontier garden
Grant Hayes Hooker
Keith Keya Paha Lincoln
Logan Loup McPherson
Perkins rock Sheridan
Thomas